sensor_id;sensor_type;location;lat;lon;timestamp;P1;durP1;ratioP1;P2;durP2;ratioP2
38557;SDS011;24333;42.626;23.308;2023-04-07T05:19:31;8.20;;;4.03;;
38557;SDS011;24333;42.626;23.308;2023-04-07T05:21:56;14.52;;;3.53;;
38557;SDS011;24333;42.626;23.308;2023-04-07T05:24:24;11.05;;;5.00;;
38557;SDS011;24333;42.626;23.308;2023-04-07T05:26:51;9.20;;;3.92;;
38557;SDS011;24333;42.626;23.308;2023-04-07T05:36:15;8.20;;;3.60;;
38557;SDS011;24333;42.626;23.308;2023-04-07T05:38:41;11.52;;;3.88;;
38557;SDS011;24333;42.626;23.308;2023-04-07T05:41:07;7.85;;;4.00;;
38557;SDS011;24333;42.626;23.308;2023-04-07T05:52:05;21.17;;;8.38;;
38557;SDS011;24333;42.626;23.308;2023-04-07T05:54:31;31.35;;;11.45;;
38557;SDS011;24333;42.626;23.308;2023-04-07T05:56:56;33.63;;;11.32;;
38557;SDS011;24333;42.626;23.308;2023-04-07T05:59:22;47.33;;;18.02;;
38557;SDS011;24333;42.626;23.308;2023-04-07T06:01:48;26.60;;;11.50;;
38557;SDS011;24333;42.626;23.308;2023-04-07T06:04:14;27.08;;;10.98;;
38557;SDS011;24333;42.626;23.308;2023-04-07T06:06:39;22.10;;;8.68;;
38557;SDS011;24333;42.626;23.308;2023-04-07T06:09:05;19.42;;;8.75;;
38557;SDS011;24333;42.626;23.308;2023-04-07T06:11:31;27.40;;;10.63;;
38557;SDS011;24333;42.626;23.308;2023-04-07T06:13:56;22.25;;;9.45;;
38557;SDS011;24333;42.626;23.308;2023-04-07T06:16:25;29.95;;;11.38;;
38557;SDS011;24333;42.626;23.308;2023-04-07T06:18:54;21.30;;;10.00;;
38557;SDS011;24333;42.626;23.308;2023-04-07T06:21:20;24.05;;;8.88;;
38557;SDS011;24333;42.626;23.308;2023-04-07T06:23:45;14.05;;;7.13;;
38557;SDS011;24333;42.626;23.308;2023-04-07T06:26:11;23.00;;;5.20;;
38557;SDS011;24333;42.626;23.308;2023-04-07T06:28:37;97.10;;;24.25;;
38557;SDS011;24333;42.626;23.308;2023-04-07T06:31:03;33.17;;;10.25;;
38557;SDS011;24333;42.626;23.308;2023-04-07T07:46:58;9.57;;;4.30;;
38557;SDS011;24333;42.626;23.308;2023-04-07T07:49:25;11.30;;;3.78;;
38557;SDS011;24333;42.626;23.308;2023-04-07T07:51:59;9.95;;;4.65;;
38557;SDS011;24333;42.626;23.308;2023-04-07T07:54:26;13.88;;;5.53;;
38557;SDS011;24333;42.626;23.308;2023-04-07T08:00:32;11.43;;;4.22;;
38557;SDS011;24333;42.626;23.308;2023-04-07T08:02:58;8.05;;;4.50;;
38557;SDS011;24333;42.626;23.308;2023-04-07T08:05:24;9.70;;;4.25;;
38557;SDS011;24333;42.626;23.308;2023-04-07T08:07:51;12.13;;;5.15;;
38557;SDS011;24333;42.626;23.308;2023-04-07T08:10:17;14.02;;;4.30;;
38557;SDS011;24333;42.626;23.308;2023-04-07T09:47:35;8.45;;;4.18;;
38557;SDS011;24333;42.626;23.308;2023-04-07T09:50:02;7.80;;;4.40;;
38557;SDS011;24333;42.626;23.308;2023-04-07T09:55:16;8.75;;;3.95;;
38557;SDS011;24333;42.626;23.308;2023-04-07T09:57:48;10.57;;;4.60;;
38557;SDS011;24333;42.626;23.308;2023-04-07T10:00:14;14.52;;;4.90;;
38557;SDS011;24333;42.626;23.308;2023-04-07T10:08:55;15.25;;;4.95;;
38557;SDS011;24333;42.626;23.308;2023-04-07T10:11:21;16.83;;;4.75;;
38557;SDS011;24333;42.626;23.308;2023-04-07T10:13:46;8.50;;;4.47;;
38557;SDS011;24333;42.626;23.308;2023-04-07T10:16:12;12.48;;;4.32;;
38557;SDS011;24333;42.626;23.308;2023-04-07T10:18:38;9.65;;;4.05;;
38557;SDS011;24333;42.626;23.308;2023-04-07T11:10:31;13.93;;;5.03;;
38557;SDS011;24333;42.626;23.308;2023-04-07T11:13:07;13.98;;;5.25;;
38557;SDS011;24333;42.626;23.308;2023-04-07T11:15:34;10.80;;;5.07;;
38557;SDS011;24333;42.626;23.308;2023-04-07T11:18:08;11.75;;;6.03;;
38557;SDS011;24333;42.626;23.308;2023-04-07T11:23:19;16.70;;;6.45;;
38557;SDS011;24333;42.626;23.308;2023-04-07T11:59:35;16.77;;;7.65;;
38557;SDS011;24333;42.626;23.308;2023-04-07T12:02:38;13.90;;;7.13;;
38557;SDS011;24333;42.626;23.308;2023-04-07T12:05:05;13.80;;;5.80;;
38557;SDS011;24333;42.626;23.308;2023-04-07T12:07:37;13.80;;;5.30;;
38557;SDS011;24333;42.626;23.308;2023-04-07T12:10:21;11.80;;;6.13;;
38557;SDS011;24333;42.626;23.308;2023-04-07T12:13:38;12.18;;;6.22;;
38557;SDS011;24333;42.626;23.308;2023-04-07T12:16:29;13.93;;;6.93;;
38557;SDS011;24333;42.626;23.308;2023-04-07T12:18:54;12.15;;;5.30;;
38557;SDS011;24333;42.626;23.308;2023-04-07T12:21:21;13.85;;;6.03;;
38557;SDS011;24333;42.626;23.308;2023-04-07T12:23:49;17.60;;;5.78;;
38557;SDS011;24333;42.626;23.308;2023-04-07T12:26:15;11.57;;;5.55;;
38557;SDS011;24333;42.626;23.308;2023-04-07T12:31:31;11.00;;;5.95;;
38557;SDS011;24333;42.626;23.308;2023-04-07T12:33:58;15.23;;;6.47;;
38557;SDS011;24333;42.626;23.308;2023-04-07T12:36:24;13.30;;;5.38;;
38557;SDS011;24333;42.626;23.308;2023-04-07T12:45:28;24.27;;;6.72;;
38557;SDS011;24333;42.626;23.308;2023-04-07T12:48:01;12.07;;;5.28;;
38557;SDS011;24333;42.626;23.308;2023-04-07T12:50:26;13.63;;;5.55;;
38557;SDS011;24333;42.626;23.308;2023-04-07T12:53:03;10.13;;;5.78;;
38557;SDS011;24333;42.626;23.308;2023-04-07T12:55:29;11.43;;;5.72;;
38557;SDS011;24333;42.626;23.308;2023-04-07T14:25:24;12.82;;;6.80;;
38557;SDS011;24333;42.626;23.308;2023-04-07T14:27:50;15.18;;;7.20;;
38557;SDS011;24333;42.626;23.308;2023-04-07T14:30:16;21.38;;;8.52;;
38557;SDS011;24333;42.626;23.308;2023-04-07T14:32:42;15.35;;;6.10;;
38557;SDS011;24333;42.626;23.308;2023-04-07T14:35:08;20.50;;;6.45;;
38557;SDS011;24333;42.626;23.308;2023-04-07T15:48:42;16.02;;;7.35;;
38557;SDS011;24333;42.626;23.308;2023-04-07T15:51:08;14.65;;;7.05;;
38557;SDS011;24333;42.626;23.308;2023-04-07T15:53:33;18.42;;;7.43;;
38557;SDS011;24333;42.626;23.308;2023-04-07T18:18:50;33.50;;;12.55;;
38557;SDS011;24333;42.626;23.308;2023-04-07T18:21:16;58.55;;;17.75;;
38557;SDS011;24333;42.626;23.308;2023-04-07T18:23:42;65.28;;;18.33;;
38557;SDS011;24333;42.626;23.308;2023-04-07T19:26:41;15.23;;;8.35;;
38557;SDS011;24333;42.626;23.308;2023-04-07T19:29:13;19.42;;;8.52;;
38557;SDS011;24333;42.626;23.308;2023-04-07T19:32:02;22.10;;;9.32;;
38557;SDS011;24333;42.626;23.308;2023-04-07T19:41:26;27.27;;;10.77;;
38557;SDS011;24333;42.626;23.308;2023-04-07T19:49:03;29.33;;;11.65;;
38557;SDS011;24333;42.626;23.308;2023-04-07T19:51:36;25.00;;;10.23;;
38557;SDS011;24333;42.626;23.308;2023-04-07T19:57:11;16.90;;;7.82;;
38557;SDS011;24333;42.626;23.308;2023-04-07T19:59:39;19.55;;;8.43;;
38557;SDS011;24333;42.626;23.308;2023-04-07T20:27:57;19.98;;;7.78;;
38557;SDS011;24333;42.626;23.308;2023-04-07T20:30:23;19.80;;;8.40;;
38557;SDS011;24333;42.626;23.308;2023-04-07T20:39:50;17.83;;;7.55;;
38557;SDS011;24333;42.626;23.308;2023-04-07T20:42:16;17.17;;;7.70;;
38557;SDS011;24333;42.626;23.308;2023-04-07T20:44:47;14.98;;;7.38;;
38557;SDS011;24333;42.626;23.308;2023-04-07T20:47:13;15.68;;;8.27;;
38557;SDS011;24333;42.626;23.308;2023-04-07T20:49:38;9.88;;;5.07;;
38557;SDS011;24333;42.626;23.308;2023-04-07T20:52:05;8.52;;;4.80;;
38557;SDS011;24333;42.626;23.308;2023-04-07T20:54:31;9.48;;;4.25;;
38557;SDS011;24333;42.626;23.308;2023-04-07T20:57:03;12.20;;;4.25;;
38557;SDS011;24333;42.626;23.308;2023-04-07T20:59:51;9.00;;;3.95;;
38557;SDS011;24333;42.626;23.308;2023-04-07T21:02:20;10.00;;;4.43;;
38557;SDS011;24333;42.626;23.308;2023-04-07T21:11:05;10.10;;;4.75;;
38557;SDS011;24333;42.626;23.308;2023-04-07T21:13:32;12.57;;;5.13;;
38557;SDS011;24333;42.626;23.308;2023-04-07T21:15:58;12.05;;;6.18;;
38557;SDS011;24333;42.626;23.308;2023-04-07T21:18:29;13.55;;;7.13;;
38557;SDS011;24333;42.626;23.308;2023-04-07T21:20:58;16.17;;;7.63;;
38557;SDS011;24333;42.626;23.308;2023-04-07T22:05:52;10.35;;;4.78;;
38557;SDS011;24333;42.626;23.308;2023-04-07T22:08:18;10.48;;;4.88;;
38557;SDS011;24333;42.626;23.308;2023-04-07T22:18:30;12.20;;;5.32;;
38557;SDS011;24333;42.626;23.308;2023-04-07T22:20:56;10.27;;;5.40;;
38557;SDS011;24333;42.626;23.308;2023-04-07T22:23:22;9.57;;;4.85;;
38557;SDS011;24333;42.626;23.308;2023-04-07T22:25:49;8.40;;;4.13;;
38557;SDS011;24333;42.626;23.308;2023-04-07T22:28:19;11.73;;;5.15;;
38557;SDS011;24333;42.626;23.308;2023-04-07T22:30:44;8.50;;;4.63;;
38557;SDS011;24333;42.626;23.308;2023-04-07T22:33:10;8.55;;;4.30;;
38557;SDS011;24333;42.626;23.308;2023-04-07T22:35:36;7.25;;;4.05;;
38557;SDS011;24333;42.626;23.308;2023-04-07T22:38:07;9.43;;;5.00;;
38557;SDS011;24333;42.626;23.308;2023-04-07T22:40:33;13.75;;;5.82;;
38557;SDS011;24333;42.626;23.308;2023-04-07T22:42:58;9.63;;;5.20;;
38557;SDS011;24333;42.626;23.308;2023-04-07T22:45:25;11.40;;;5.25;;
38557;SDS011;24333;42.626;23.308;2023-04-07T22:47:51;8.70;;;4.63;;
38557;SDS011;24333;42.626;23.308;2023-04-07T22:50:17;10.65;;;5.18;;
38557;SDS011;24333;42.626;23.308;2023-04-07T22:52:43;10.63;;;6.00;;
38557;SDS011;24333;42.626;23.308;2023-04-07T22:55:09;22.25;;;7.55;;
38557;SDS011;24333;42.626;23.308;2023-04-07T22:57:35;19.73;;;8.73;;
38557;SDS011;24333;42.626;23.308;2023-04-07T23:00:01;17.85;;;7.47;;
38557;SDS011;24333;42.626;23.308;2023-04-07T23:02:28;18.88;;;7.90;;
38557;SDS011;24333;42.626;23.308;2023-04-07T23:04:53;17.65;;;8.05;;
38557;SDS011;24333;42.626;23.308;2023-04-07T23:07:19;14.68;;;7.03;;
38557;SDS011;24333;42.626;23.308;2023-04-07T23:09:47;15.60;;;7.05;;
38557;SDS011;24333;42.626;23.308;2023-04-07T23:12:12;14.73;;;7.00;;
38557;SDS011;24333;42.626;23.308;2023-04-07T23:14:38;16.13;;;7.22;;
38557;SDS011;24333;42.626;23.308;2023-04-07T23:17:04;14.60;;;7.45;;
38557;SDS011;24333;42.626;23.308;2023-04-07T23:19:30;12.88;;;6.90;;
38557;SDS011;24333;42.626;23.308;2023-04-07T23:21:59;17.60;;;7.97;;
38557;SDS011;24333;42.626;23.308;2023-04-07T23:24:25;26.17;;;7.80;;
38557;SDS011;24333;42.626;23.308;2023-04-07T23:26:50;15.80;;;7.47;;
38557;SDS011;24333;42.626;23.308;2023-04-07T23:29:16;15.55;;;6.82;;
38557;SDS011;24333;42.626;23.308;2023-04-07T23:34:33;11.07;;;5.72;;
38557;SDS011;24333;42.626;23.308;2023-04-07T23:37:20;12.60;;;5.03;;
38557;SDS011;24333;42.626;23.308;2023-04-07T23:39:46;10.98;;;5.40;;
38557;SDS011;24333;42.626;23.308;2023-04-07T23:47:46;10.02;;;4.30;;
38557;SDS011;24333;42.626;23.308;2023-04-07T23:50:12;12.73;;;4.82;;
38557;SDS011;24333;42.626;23.308;2023-04-07T23:52:38;8.43;;;4.70;;
38557;SDS011;24333;42.626;23.308;2023-04-07T23:55:05;9.25;;;4.20;;
38557;SDS011;24333;42.626;23.308;2023-04-07T23:57:31;8.77;;;4.50;;
38557;SDS011;24333;42.626;23.308;2023-04-07T23:59:56;9.23;;;4.40;;
